sensor_id;sensor_type;location;lat;lon;timestamp;pressure;altitude;pressure_sealevel;temperature;humidity
47260;BME280;32999;52.412;4.890;2022-09-06T00:02:01;101603.38;;;20.12;100.00
47260;BME280;32999;52.412;4.890;2022-09-06T00:07:03;101606.13;;;20.24;100.00
47260;BME280;32999;52.412;4.890;2022-09-06T00:12:05;101609.72;;;20.06;100.00
47260;BME280;32999;52.412;4.890;2022-09-06T00:17:10;101609.50;;;19.59;100.00
47260;BME280;32999;52.412;4.890;2022-09-06T00:22:12;101639.41;;;19.71;100.00
47260;BME280;32999;52.412;4.890;2022-09-06T00:27:15;101637.75;;;19.70;100.00
47260;BME280;32999;52.412;4.890;2022-09-06T00:32:19;101647.69;;;19.76;100.00
47260;BME280;32999;52.412;4.890;2022-09-06T00:37:20;101610.56;;;19.77;100.00
47260;BME280;32999;52.412;4.890;2022-09-06T00:42:23;101618.19;;;19.98;100.00
47260;BME280;32999;52.412;4.890;2022-09-06T00:47:27;101610.56;;;19.77;100.00
47260;BME280;32999;52.412;4.890;2022-09-06T00:52:31;101594.22;;;19.95;100.00
47260;BME280;32999;52.412;4.890;2022-09-06T00:57:34;101522.88;;;19.46;100.00
47260;BME280;32999;52.412;4.890;2022-09-06T01:02:37;101578.69;;;20.02;100.00
47260;BME280;32999;52.412;4.890;2022-09-06T01:07:55;101645.66;;;20.50;100.00
47260;BME280;32999;52.412;4.890;2022-09-06T01:13:03;101655.81;;;20.54;100.00
47260;BME280;32999;52.412;4.890;2022-09-06T01:18:29;101677.66;;;20.59;100.00
47260;BME280;32999;52.412;4.890;2022-09-06T01:29:14;101639.38;;;20.37;100.00
47260;BME280;32999;52.412;4.890;2022-09-06T01:34:25;101622.78;;;20.27;100.00
47260;BME280;32999;52.412;4.890;2022-09-06T01:39:31;101603.75;;;20.46;100.00
47260;BME280;32999;52.412;4.890;2022-09-06T01:44:35;101607.66;;;20.61;100.00
47260;BME280;32999;52.412;4.890;2022-09-06T01:49:45;101589.47;;;20.50;100.00
47260;BME280;32999;52.412;4.890;2022-09-06T01:55:04;101611.59;;;20.77;100.00
47260;BME280;32999;52.412;4.890;2022-09-06T02:00:14;101596.13;;;20.78;100.00
47260;BME280;32999;52.412;4.890;2022-09-06T02:05:22;101590.78;;;20.83;100.00
47260;BME280;32999;52.412;4.890;2022-09-06T02:10:33;101560.31;;;20.69;100.00
47260;BME280;32999;52.412;4.890;2022-09-06T02:15:43;101568.69;;;20.91;100.00
47260;BME280;32999;52.412;4.890;2022-09-06T02:20:53;101552.75;;;20.94;100.00
47260;BME280;32999;52.412;4.890;2022-09-06T02:25:59;101548.13;;;20.83;100.00
47260;BME280;32999;52.412;4.890;2022-09-06T02:31:10;101548.38;;;20.82;100.00
47260;BME280;32999;52.412;4.890;2022-09-06T02:36:13;101549.09;;;20.77;100.00
47260;BME280;32999;52.412;4.890;2022-09-06T02:41:20;101554.16;;;20.74;100.00
47260;BME280;32999;52.412;4.890;2022-09-06T02:46:24;101552.75;;;20.71;100.00
47260;BME280;32999;52.412;4.890;2022-09-06T02:51:26;101500.50;;;20.22;100.00
47260;BME280;32999;52.412;4.890;2022-09-06T02:56:28;101566.31;;;20.59;100.00
47260;BME280;32999;52.412;4.890;2022-09-06T03:01:35;101522.44;;;20.32;100.00
47260;BME280;32999;52.412;4.890;2022-09-06T03:06:47;101559.81;;;20.60;100.00
47260;BME280;32999;52.412;4.890;2022-09-06T03:11:48;101532.22;;;20.52;100.00
47260;BME280;32999;52.412;4.890;2022-09-06T03:16:52;101556.88;;;20.62;100.00
47260;BME280;32999;52.412;4.890;2022-09-06T03:21:56;101528.91;;;20.50;100.00
47260;BME280;32999;52.412;4.890;2022-09-06T03:27:01;101562.44;;;20.67;100.00
47260;BME280;32999;52.412;4.890;2022-09-06T03:32:05;101462.34;;;20.05;100.00
47260;BME280;32999;52.412;4.890;2022-09-06T03:37:06;101554.63;;;20.59;100.00
47260;BME280;32999;52.412;4.890;2022-09-06T03:42:08;101563.50;;;20.66;100.00
47260;BME280;32999;52.412;4.890;2022-09-06T03:47:13;101560.41;;;20.62;100.00
47260;BME280;32999;52.412;4.890;2022-09-06T03:52:20;101552.03;;;20.52;100.00
47260;BME280;32999;52.412;4.890;2022-09-06T03:57:22;101557.56;;;20.57;100.00
47260;BME280;32999;52.412;4.890;2022-09-06T04:02:26;101564.28;;;20.55;100.00
47260;BME280;32999;52.412;4.890;2022-09-06T04:07:27;101562.31;;;20.62;100.00
47260;BME280;32999;52.412;4.890;2022-09-06T04:12:29;101568.34;;;20.64;100.00
47260;BME280;32999;52.412;4.890;2022-09-06T04:17:38;101562.91;;;20.64;100.00
47260;BME280;32999;52.412;4.890;2022-09-06T04:22:40;101560.28;;;20.57;100.00
47260;BME280;32999;52.412;4.890;2022-09-06T04:27:44;101580.03;;;20.64;100.00
47260;BME280;32999;52.412;4.890;2022-09-06T04:32:49;101583.91;;;20.57;100.00
47260;BME280;32999;52.412;4.890;2022-09-06T04:37:52;101595.28;;;20.35;100.00
47260;BME280;32999;52.412;4.890;2022-09-06T04:42:53;101614.72;;;20.51;100.00
47260;BME280;32999;52.412;4.890;2022-09-06T04:47:56;101639.50;;;20.54;100.00
47260;BME280;32999;52.412;4.890;2022-09-06T04:52:58;101622.16;;;20.55;100.00
47260;BME280;32999;52.412;4.890;2022-09-06T04:58:00;101616.63;;;20.62;100.00
47260;BME280;32999;52.412;4.890;2022-09-06T05:03:04;101513.66;;;20.07;100.00
47260;BME280;32999;52.412;4.890;2022-09-06T05:08:09;101583.06;;;20.56;100.00
47260;BME280;32999;52.412;4.890;2022-09-06T05:13:10;101594.06;;;20.61;100.00
47260;BME280;32999;52.412;4.890;2022-09-06T05:18:13;101600.09;;;20.52;100.00
47260;BME280;32999;52.412;4.890;2022-09-06T05:23:15;101595.91;;;20.37;100.00
47260;BME280;32999;52.412;4.890;2022-09-06T05:28:17;101535.50;;;20.00;100.00
47260;BME280;32999;52.412;4.890;2022-09-06T05:33:21;101507.19;;;19.66;100.00
47260;BME280;32999;52.412;4.890;2022-09-06T05:38:22;101465.81;;;19.41;100.00
47260;BME280;32999;52.412;4.890;2022-09-06T05:43:24;101474.97;;;19.58;100.00
47260;BME280;32999;52.412;4.890;2022-09-06T05:48:27;101556.16;;;20.13;100.00
47260;BME280;32999;52.412;4.890;2022-09-06T05:53:33;101578.25;;;20.17;100.00
47260;BME280;32999;52.412;4.890;2022-09-06T05:58:35;101468.16;;;19.67;100.00
47260;BME280;32999;52.412;4.890;2022-09-06T06:03:39;101518.41;;;20.00;100.00
47260;BME280;32999;52.412;4.890;2022-09-06T06:08:41;101555.31;;;20.43;100.00
47260;BME280;32999;52.412;4.890;2022-09-06T06:13:43;101513.63;;;20.25;100.00
47260;BME280;32999;52.412;4.890;2022-09-06T06:18:46;101449.69;;;19.88;100.00
47260;BME280;32999;52.412;4.890;2022-09-06T06:23:51;101560.88;;;20.48;100.00
47260;BME280;32999;52.412;4.890;2022-09-06T06:28:56;101547.19;;;20.54;100.00
47260;BME280;32999;52.412;4.890;2022-09-06T06:34:02;101562.91;;;20.64;100.00
47260;BME280;32999;52.412;4.890;2022-09-06T06:39:06;101557.69;;;20.62;100.00
47260;BME280;32999;52.412;4.890;2022-09-06T06:44:10;101553.69;;;20.65;100.00
47260;BME280;32999;52.412;4.890;2022-09-06T06:49:13;101545.31;;;20.66;100.00
47260;BME280;32999;52.412;4.890;2022-09-06T06:54:15;101527.47;;;20.59;100.00
47260;BME280;32999;52.412;4.890;2022-09-06T06:59:18;101523.22;;;20.63;100.00
47260;BME280;32999;52.412;4.890;2022-09-06T07:04:26;101457.19;;;20.16;100.00
47260;BME280;32999;52.412;4.890;2022-09-06T07:09:30;101536.19;;;20.84;100.00
47260;BME280;32999;52.412;4.890;2022-09-06T07:14:34;101519.41;;;20.87;100.00
47260;BME280;32999;52.412;4.890;2022-09-06T07:19:43;101415.78;;;20.20;100.00
47260;BME280;32999;52.412;4.890;2022-09-06T07:24:44;101492.84;;;20.54;100.00
47260;BME280;32999;52.412;4.890;2022-09-06T07:29:46;101478.72;;;20.52;100.00
47260;BME280;32999;52.412;4.890;2022-09-06T07:34:50;101456.75;;;20.42;100.00
47260;BME280;32999;52.412;4.890;2022-09-06T07:39:53;101514.34;;;21.02;100.00
47260;BME280;32999;52.412;4.890;2022-09-06T07:44:57;101437.84;;;20.59;100.00
47260;BME280;32999;52.412;4.890;2022-09-06T07:50:00;101442.78;;;20.62;100.00
47260;BME280;32999;52.412;4.890;2022-09-06T07:55:03;101526.56;;;21.28;100.00
47260;BME280;32999;52.412;4.890;2022-09-06T08:00:06;101519.09;;;21.47;100.00
47260;BME280;32999;52.412;4.890;2022-09-06T08:05:15;101503.78;;;21.58;100.00
47260;BME280;32999;52.412;4.890;2022-09-06T08:10:18;101513.13;;;21.79;100.00
47260;BME280;32999;52.412;4.890;2022-09-06T08:15:21;101479.00;;;21.71;100.00
47260;BME280;32999;52.412;4.890;2022-09-06T08:20:30;101476.88;;;21.73;100.00
47260;BME280;32999;52.412;4.890;2022-09-06T08:25:34;101485.47;;;21.98;100.00
47260;BME280;32999;52.412;4.890;2022-09-06T08:30:36;101393.66;;;21.60;100.00
47260;BME280;32999;52.412;4.890;2022-09-06T08:35:40;101477.59;;;22.14;100.00
47260;BME280;32999;52.412;4.890;2022-09-06T08:40:41;101486.75;;;22.24;100.00
47260;BME280;32999;52.412;4.890;2022-09-06T08:45:44;101467.47;;;22.64;100.00
47260;BME280;32999;52.412;4.890;2022-09-06T08:50:58;101480.66;;;23.11;100.00
47260;BME280;32999;52.412;4.890;2022-09-06T08:56:12;101449.78;;;23.32;100.00
47260;BME280;32999;52.412;4.890;2022-09-06T09:01:21;101449.38;;;23.19;100.00
47260;BME280;32999;52.412;4.890;2022-09-06T09:06:27;101477.63;;;23.56;100.00
47260;BME280;32999;52.412;4.890;2022-09-06T09:11:31;101469.75;;;23.87;100.00
47260;BME280;32999;52.412;4.890;2022-09-06T09:16:35;101455.81;;;24.20;100.00
47260;BME280;32999;52.412;4.890;2022-09-06T09:21:38;101457.78;;;24.67;100.00
47260;BME280;32999;52.412;4.890;2022-09-06T09:32:39;101459.78;;;25.59;100.00
47260;BME280;32999;52.412;4.890;2022-09-06T09:37:58;101453.25;;;26.21;100.00
47260;BME280;32999;52.412;4.890;2022-09-06T09:43:10;101456.00;;;26.47;100.00
47260;BME280;32999;52.412;4.890;2022-09-06T09:48:17;101455.06;;;26.76;100.00
47260;BME280;32999;52.412;4.890;2022-09-06T09:53:23;101437.81;;;28.08;100.00
47260;BME280;32999;52.412;4.890;2022-09-06T09:58:31;101461.66;;;28.71;100.00
47260;BME280;32999;52.412;4.890;2022-09-06T10:03:34;101419.09;;;29.67;100.00
47260;BME280;32999;52.412;4.890;2022-09-06T10:08:39;101428.25;;;30.28;100.00
47260;BME280;32999;52.412;4.890;2022-09-06T10:13:42;101472.94;;;29.41;100.00
47260;BME280;32999;52.412;4.890;2022-09-06T10:18:45;101462.03;;;29.12;100.00
47260;BME280;32999;52.412;4.890;2022-09-06T10:24:05;101454.69;;;30.89;100.00
47260;BME280;32999;52.412;4.890;2022-09-06T10:29:12;101476.66;;;30.80;100.00
47260;BME280;32999;52.412;4.890;2022-09-06T10:39:58;101497.50;;;31.99;95.70
47260;BME280;32999;52.412;4.890;2022-09-06T10:45:32;101495.34;;;30.56;100.00
47260;BME280;32999;52.412;4.890;2022-09-06T10:50:43;101486.53;;;33.18;90.35
47260;BME280;32999;52.412;4.890;2022-09-06T10:56:00;101484.59;;;34.31;79.68
47260;BME280;32999;52.412;4.890;2022-09-06T11:01:04;101485.78;;;33.69;79.43
47260;BME280;32999;52.412;4.890;2022-09-06T11:06:11;101485.81;;;32.95;83.74
47260;BME280;32999;52.412;4.890;2022-09-06T11:11:23;101501.31;;;35.28;75.37
47260;BME280;32999;52.412;4.890;2022-09-06T11:16:42;101491.16;;;35.94;67.99
47260;BME280;32999;52.412;4.890;2022-09-06T11:22:40;101507.84;;;35.94;67.79
47260;BME280;32999;52.412;4.890;2022-09-06T11:27:51;101511.56;;;34.68;72.16
47260;BME280;32999;52.412;4.890;2022-09-06T11:33:09;101493.78;;;36.57;61.98
47260;BME280;32999;52.412;4.890;2022-09-06T11:38:21;101468.41;;;37.47;57.62
47260;BME280;32999;52.412;4.890;2022-09-06T11:43:52;101490.84;;;37.14;56.76
47260;BME280;32999;52.412;4.890;2022-09-06T11:49:01;101448.28;;;37.82;52.91
47260;BME280;32999;52.412;4.890;2022-09-06T11:54:07;101426.09;;;37.45;53.06
47260;BME280;32999;52.412;4.890;2022-09-06T11:59:28;101459.34;;;37.38;54.42
47260;BME280;32999;52.412;4.890;2022-09-06T12:05:15;101424.84;;;38.45;51.39
47260;BME280;32999;52.412;4.890;2022-09-06T12:15:53;101437.31;;;38.32;54.37
47260;BME280;32999;52.412;4.890;2022-09-06T12:21:01;101459.88;;;37.28;54.68
47260;BME280;32999;52.412;4.890;2022-09-06T12:26:03;101426.41;;;37.28;54.43
47260;BME280;32999;52.412;4.890;2022-09-06T12:31:27;101412.88;;;38.13;51.23
47260;BME280;32999;52.412;4.890;2022-09-06T12:36:31;101346.09;;;38.91;48.01
47260;BME280;32999;52.412;4.890;2022-09-06T12:41:37;101386.06;;;39.10;45.17
47260;BME280;32999;52.412;4.890;2022-09-06T12:46:46;101370.66;;;37.16;49.81
47260;BME280;32999;52.412;4.890;2022-09-06T12:51:49;101418.75;;;38.24;48.24
47260;BME280;32999;52.412;4.890;2022-09-06T12:56:51;101373.22;;;38.55;43.75
47260;BME280;32999;52.412;4.890;2022-09-06T13:01:56;101361.91;;;38.83;43.12
47260;BME280;32999;52.412;4.890;2022-09-06T13:07:01;101342.53;;;38.74;40.83
47260;BME280;32999;52.412;4.890;2022-09-06T13:12:08;101289.88;;;38.41;40.54
47260;BME280;32999;52.412;4.890;2022-09-06T13:17:24;101340.88;;;38.54;41.78
47260;BME280;32999;52.412;4.890;2022-09-06T13:22:38;101354.53;;;38.75;44.08
47260;BME280;32999;52.412;4.890;2022-09-06T13:27:42;101336.72;;;37.54;41.56
47260;BME280;32999;52.412;4.890;2022-09-06T13:32:46;101284.50;;;37.10;43.16
47260;BME280;32999;52.412;4.890;2022-09-06T13:37:48;101403.72;;;35.83;49.16
47260;BME280;32999;52.412;4.890;2022-09-06T13:42:58;101408.19;;;33.35;55.97
47260;BME280;32999;52.412;4.890;2022-09-06T13:48:02;101397.38;;;32.11;61.24
47260;BME280;32999;52.412;4.890;2022-09-06T13:53:03;101375.44;;;31.39;69.28
47260;BME280;32999;52.412;4.890;2022-09-06T13:58:05;101429.81;;;31.52;71.41
47260;BME280;32999;52.412;4.890;2022-09-06T14:03:09;101456.16;;;31.36;73.17
47260;BME280;32999;52.412;4.890;2022-09-06T14:08:14;101459.59;;;30.78;77.49
47260;BME280;32999;52.412;4.890;2022-09-06T14:13:17;101432.81;;;30.65;78.61
47260;BME280;32999;52.412;4.890;2022-09-06T14:18:20;101450.44;;;30.50;79.90
47260;BME280;32999;52.412;4.890;2022-09-06T14:23:21;101454.13;;;29.99;82.69
47260;BME280;32999;52.412;4.890;2022-09-06T14:28:24;101356.56;;;29.49;86.79
47260;BME280;32999;52.412;4.890;2022-09-06T14:33:27;101371.16;;;29.68;78.68
47260;BME280;32999;52.412;4.890;2022-09-06T14:38:28;101463.19;;;29.49;87.53
47260;BME280;32999;52.412;4.890;2022-09-06T14:43:30;101403.47;;;29.06;92.51
47260;BME280;32999;52.412;4.890;2022-09-06T14:48:34;101430.53;;;29.42;91.84
47260;BME280;32999;52.412;4.890;2022-09-06T14:53:39;101410.16;;;29.38;88.04
47260;BME280;32999;52.412;4.890;2022-09-06T14:58:41;101399.28;;;29.28;88.06
47260;BME280;32999;52.412;4.890;2022-09-06T15:03:46;101412.38;;;28.98;92.42
47260;BME280;32999;52.412;4.890;2022-09-06T15:08:50;101428.28;;;29.01;94.51
47260;BME280;32999;52.412;4.890;2022-09-06T15:13:52;101432.03;;;29.29;92.60
47260;BME280;32999;52.412;4.890;2022-09-06T15:18:56;101438.38;;;29.11;95.18
47260;BME280;32999;52.412;4.890;2022-09-06T15:23:58;101327.81;;;28.42;92.94
47260;BME280;32999;52.412;4.890;2022-09-06T15:29:01;101422.03;;;28.96;95.17
47260;BME280;32999;52.412;4.890;2022-09-06T15:34:04;101362.88;;;28.51;96.01
47260;BME280;32999;52.412;4.890;2022-09-06T15:39:07;101336.22;;;28.27;97.84
47260;BME280;32999;52.412;4.890;2022-09-06T15:44:10;101408.75;;;28.79;94.76
47260;BME280;32999;52.412;4.890;2022-09-06T15:49:16;101414.75;;;28.86;97.00
47260;BME280;32999;52.412;4.890;2022-09-06T15:54:19;101402.94;;;28.86;98.88
47260;BME280;32999;52.412;4.890;2022-09-06T15:59:42;101380.44;;;28.31;96.16
47260;BME280;32999;52.412;4.890;2022-09-06T16:04:46;101366.75;;;28.26;90.01
47260;BME280;32999;52.412;4.890;2022-09-06T16:09:47;101375.78;;;28.31;94.70
47260;BME280;32999;52.412;4.890;2022-09-06T16:14:49;101350.56;;;28.24;93.77
47260;BME280;32999;52.412;4.890;2022-09-06T16:19:52;101376.00;;;28.59;87.62
47260;BME280;32999;52.412;4.890;2022-09-06T16:24:54;101362.66;;;28.47;92.95
47260;BME280;32999;52.412;4.890;2022-09-06T16:29:55;101331.56;;;27.99;88.88
47260;BME280;32999;52.412;4.890;2022-09-06T16:34:59;101356.47;;;28.07;88.27
47260;BME280;32999;52.412;4.890;2022-09-06T16:40:01;101259.88;;;27.42;86.33
47260;BME280;32999;52.412;4.890;2022-09-06T16:45:04;101356.81;;;28.01;85.84
47260;BME280;32999;52.412;4.890;2022-09-06T16:50:08;101241.28;;;27.34;79.11
47260;BME280;32999;52.412;4.890;2022-09-06T16:55:09;101337.53;;;28.06;78.81
47260;BME280;32999;52.412;4.890;2022-09-06T17:00:11;101338.06;;;28.08;78.39
47260;BME280;32999;52.412;4.890;2022-09-06T17:05:16;101257.88;;;27.48;77.58
47260;BME280;32999;52.412;4.890;2022-09-06T17:10:18;101319.97;;;27.78;84.33
47260;BME280;32999;52.412;4.890;2022-09-06T17:15:19;101384.88;;;27.98;91.42
47260;BME280;32999;52.412;4.890;2022-09-06T17:20:22;101302.13;;;27.47;92.91
47260;BME280;32999;52.412;4.890;2022-09-06T17:25:24;101346.81;;;27.52;98.13
47260;BME280;32999;52.412;4.890;2022-09-06T17:30:26;101375.03;;;27.63;96.84
47260;BME280;32999;52.412;4.890;2022-09-06T17:35:30;101306.56;;;27.03;97.91
47260;BME280;32999;52.412;4.890;2022-09-06T17:40:33;101362.59;;;26.97;100.00
47260;BME280;32999;52.412;4.890;2022-09-06T17:45:35;101371.16;;;26.75;100.00
47260;BME280;32999;52.412;4.890;2022-09-06T17:50:38;101273.34;;;25.91;100.00
47260;BME280;32999;52.412;4.890;2022-09-06T17:55:41;101357.78;;;26.59;100.00
47260;BME280;32999;52.412;4.890;2022-09-06T18:00:43;101375.41;;;26.48;100.00
47260;BME280;32999;52.412;4.890;2022-09-06T18:05:46;101349.13;;;26.31;100.00
47260;BME280;32999;52.412;4.890;2022-09-06T18:10:48;101331.06;;;26.15;100.00
47260;BME280;32999;52.412;4.890;2022-09-06T18:15:49;101361.47;;;26.19;100.00
47260;BME280;32999;52.412;4.890;2022-09-06T18:20:53;101371.88;;;26.32;100.00
47260;BME280;32999;52.412;4.890;2022-09-06T18:25:55;101370.47;;;26.24;100.00
47260;BME280;32999;52.412;4.890;2022-09-06T18:30:58;101370.50;;;26.19;100.00
47260;BME280;32999;52.412;4.890;2022-09-06T18:36:01;101388.06;;;26.08;100.00
47260;BME280;32999;52.412;4.890;2022-09-06T18:41:05;101364.28;;;25.73;100.00
47260;BME280;32999;52.412;4.890;2022-09-06T18:46:09;101356.06;;;25.63;100.00
47260;BME280;32999;52.412;4.890;2022-09-06T18:51:13;101363.16;;;25.59;100.00
47260;BME280;32999;52.412;4.890;2022-09-06T18:56:15;101310.31;;;25.18;100.00
47260;BME280;32999;52.412;4.890;2022-09-06T19:01:17;101365.06;;;25.48;100.00
47260;BME280;32999;52.412;4.890;2022-09-06T19:06:21;101356.88;;;25.48;100.00
47260;BME280;32999;52.412;4.890;2022-09-06T19:11:23;101367.00;;;25.48;100.00
47260;BME280;32999;52.412;4.890;2022-09-06T19:16:25;101345.09;;;25.48;100.00
47260;BME280;32999;52.412;4.890;2022-09-06T19:21:29;101259.34;;;24.81;100.00
47260;BME280;32999;52.412;4.890;2022-09-06T19:26:33;101337.69;;;25.18;100.00
47260;BME280;32999;52.412;4.890;2022-09-06T19:31:36;101251.88;;;24.36;100.00
47260;BME280;32999;52.412;4.890;2022-09-06T19:36:40;101315.09;;;24.75;100.00
47260;BME280;32999;52.412;4.890;2022-09-06T19:41:42;101311.78;;;24.58;100.00
47260;BME280;32999;52.412;4.890;2022-09-06T19:46:46;101272.63;;;24.32;100.00
47260;BME280;32999;52.412;4.890;2022-09-06T19:51:49;101238.63;;;24.13;100.00
47260;BME280;32999;52.412;4.890;2022-09-06T19:56:52;101182.50;;;23.80;100.00
47260;BME280;32999;52.412;4.890;2022-09-06T20:01:53;101234.03;;;24.18;100.00
47260;BME280;32999;52.412;4.890;2022-09-06T20:06:56;101267.72;;;24.39;100.00
47260;BME280;32999;52.412;4.890;2022-09-06T20:11:58;101266.28;;;24.21;100.00
47260;BME280;32999;52.412;4.890;2022-09-06T20:16:59;101248.25;;;24.20;100.00
47260;BME280;32999;52.412;4.890;2022-09-06T20:22:02;101258.94;;;24.27;100.00
47260;BME280;32999;52.412;4.890;2022-09-06T20:27:05;101243.31;;;24.17;100.00
47260;BME280;32999;52.412;4.890;2022-09-06T20:32:10;101228.56;;;24.18;100.00
47260;BME280;32999;52.412;4.890;2022-09-06T20:37:46;101228.88;;;24.27;100.00
47260;BME280;32999;52.412;4.890;2022-09-06T20:43:07;101232.13;;;24.19;100.00
47260;BME280;32999;52.412;4.890;2022-09-06T20:48:10;101199.59;;;24.17;100.00
47260;BME280;32999;52.412;4.890;2022-09-06T20:53:13;101183.97;;;23.50;100.00
47260;BME280;32999;52.412;4.890;2022-09-06T20:58:15;101180.41;;;23.07;100.00
47260;BME280;32999;52.412;4.890;2022-09-06T21:03:16;101167.06;;;22.52;100.00
47260;BME280;32999;52.412;4.890;2022-09-06T21:08:20;101188.16;;;22.35;100.00
47260;BME280;32999;52.412;4.890;2022-09-06T21:13:25;101212.88;;;22.06;100.00
47260;BME280;32999;52.412;4.890;2022-09-06T21:18:34;101226.25;;;21.91;100.00
47260;BME280;32999;52.412;4.890;2022-09-06T21:23:37;101242.50;;;21.86;100.00
47260;BME280;32999;52.412;4.890;2022-09-06T21:28:52;101261.28;;;21.66;100.00
47260;BME280;32999;52.412;4.890;2022-09-06T21:33:55;101253.84;;;21.61;100.00
47260;BME280;32999;52.412;4.890;2022-09-06T21:39:00;101282.22;;;21.49;100.00
47260;BME280;32999;52.412;4.890;2022-09-06T21:44:04;101327.56;;;21.43;100.00
47260;BME280;32999;52.412;4.890;2022-09-06T21:49:07;101352.41;;;21.35;100.00
47260;BME280;32999;52.412;4.890;2022-09-06T21:54:11;101382.16;;;21.13;100.00
47260;BME280;32999;52.412;4.890;2022-09-06T21:59:12;101478.63;;;21.22;100.00
47260;BME280;32999;52.412;4.890;2022-09-06T22:04:14;101488.53;;;21.17;100.00
47260;BME280;32999;52.412;4.890;2022-09-06T22:09:17;101495.78;;;20.88;100.00
47260;BME280;32999;52.412;4.890;2022-09-06T22:14:18;101501.13;;;20.71;100.00
47260;BME280;32999;52.412;4.890;2022-09-06T22:19:20;101471.47;;;20.34;100.00
47260;BME280;32999;52.412;4.890;2022-09-06T22:24:27;101485.88;;;20.23;100.00
47260;BME280;32999;52.412;4.890;2022-09-06T22:29:29;101534.78;;;19.93;100.00
47260;BME280;32999;52.412;4.890;2022-09-06T22:34:35;101503.25;;;19.51;100.00
47260;BME280;32999;52.412;4.890;2022-09-06T22:39:38;101540.81;;;19.47;100.00
47260;BME280;32999;52.412;4.890;2022-09-06T22:44:41;101560.84;;;19.46;100.00
47260;BME280;32999;52.412;4.890;2022-09-06T22:49:43;101580.41;;;19.48;100.00
47260;BME280;32999;52.412;4.890;2022-09-06T22:54:46;101471.00;;;18.76;100.00
47260;BME280;32999;52.412;4.890;2022-09-06T22:59:48;101456.69;;;18.69;100.00
47260;BME280;32999;52.412;4.890;2022-09-06T23:04:49;101567.16;;;19.40;100.00
47260;BME280;32999;52.412;4.890;2022-09-06T23:09:53;101498.84;;;19.01;100.00
47260;BME280;32999;52.412;4.890;2022-09-06T23:14:54;101466.75;;;19.17;100.00
47260;BME280;32999;52.412;4.890;2022-09-06T23:19:56;101502.47;;;19.44;100.00
47260;BME280;32999;52.412;4.890;2022-09-06T23:24:59;101393.47;;;18.93;100.00
47260;BME280;32999;52.412;4.890;2022-09-06T23:30:01;101457.06;;;19.39;100.00
47260;BME280;32999;52.412;4.890;2022-09-06T23:35:04;101467.16;;;19.32;100.00
47260;BME280;32999;52.412;4.890;2022-09-06T23:40:08;101463.75;;;19.25;100.00
47260;BME280;32999;52.412;4.890;2022-09-06T23:45:10;101421.56;;;18.99;100.00
47260;BME280;32999;52.412;4.890;2022-09-06T23:50:12;101457.25;;;19.26;100.00
47260;BME280;32999;52.412;4.890;2022-09-06T23:55:27;101359.88;;;18.46;100.00
